sensor_id;sensor_type;location;lat;lon;timestamp;pressure;altitude;pressure_sealevel;temperature;humidity
68948;BME280;55996;49.546;7.400;2023-05-31T00:01:08;99166.53;;;13.39;80.06
68948;BME280;55996;49.546;7.400;2023-05-31T00:03:33;99171.56;;;13.45;79.75
68948;BME280;55996;49.546;7.400;2023-05-31T00:06:00;99175.16;;;13.43;79.93
68948;BME280;55996;49.546;7.400;2023-05-31T00:08:25;99175.03;;;13.46;79.67
68948;BME280;55996;49.546;7.400;2023-05-31T00:10:51;99163.84;;;13.40;78.50
68948;BME280;55996;49.546;7.400;2023-05-31T00:13:17;99160.16;;;13.46;76.70
68948;BME280;55996;49.546;7.400;2023-05-31T00:15:42;99153.91;;;13.49;75.38
68948;BME280;55996;49.546;7.400;2023-05-31T00:18:07;99156.38;;;13.53;75.30
68948;BME280;55996;49.546;7.400;2023-05-31T00:20:33;99153.75;;;13.53;77.65
68948;BME280;55996;49.546;7.400;2023-05-31T00:22:58;99166.88;;;13.53;78.47
68948;BME280;55996;49.546;7.400;2023-05-31T00:25:27;99160.00;;;13.49;78.18
68948;BME280;55996;49.546;7.400;2023-05-31T00:27:52;99161.91;;;13.46;78.42
68948;BME280;55996;49.546;7.400;2023-05-31T00:30:17;99161.22;;;13.40;77.96
68948;BME280;55996;49.546;7.400;2023-05-31T00:32:43;99146.34;;;13.41;78.73
68948;BME280;55996;49.546;7.400;2023-05-31T00:35:10;99151.88;;;13.32;78.47
68948;BME280;55996;49.546;7.400;2023-05-31T00:37:35;99150.97;;;13.33;79.02
68948;BME280;55996;49.546;7.400;2023-05-31T00:40:05;99152.03;;;13.27;79.05
68948;BME280;55996;49.546;7.400;2023-05-31T00:42:32;99149.53;;;13.24;78.32
68948;BME280;55996;49.546;7.400;2023-05-31T00:44:57;99145.34;;;13.18;78.79
68948;BME280;55996;49.546;7.400;2023-05-31T00:47:23;99138.28;;;13.20;78.56
68948;BME280;55996;49.546;7.400;2023-05-31T00:49:49;99140.22;;;13.15;78.54
68948;BME280;55996;49.546;7.400;2023-05-31T00:52:14;99145.25;;;13.21;78.30
68948;BME280;55996;49.546;7.400;2023-05-31T00:54:40;99144.22;;;13.26;76.59
68948;BME280;55996;49.546;7.400;2023-05-31T00:57:06;99152.00;;;13.29;77.89
68948;BME280;55996;49.546;7.400;2023-05-31T00:59:32;99152.22;;;13.22;76.97
68948;BME280;55996;49.546;7.400;2023-05-31T01:01:57;99154.66;;;13.27;77.65
68948;BME280;55996;49.546;7.400;2023-05-31T01:04:25;99151.09;;;13.30;78.28
68948;BME280;55996;49.546;7.400;2023-05-31T01:06:50;99142.00;;;13.15;78.11
68948;BME280;55996;49.546;7.400;2023-05-31T01:09:19;99150.50;;;13.21;79.72
68948;BME280;55996;49.546;7.400;2023-05-31T01:14:59;99161.38;;;13.11;80.44
68948;BME280;55996;49.546;7.400;2023-05-31T01:17:42;99159.72;;;13.08;80.27
68948;BME280;55996;49.546;7.400;2023-05-31T01:20:14;99157.44;;;12.99;80.43
68948;BME280;55996;49.546;7.400;2023-05-31T01:22:45;99156.72;;;12.94;80.91
68948;BME280;55996;49.546;7.400;2023-05-31T01:27:42;99148.38;;;12.82;82.27
68948;BME280;55996;49.546;7.400;2023-05-31T01:30:09;99156.38;;;12.79;81.69
68948;BME280;55996;49.546;7.400;2023-05-31T01:32:35;99143.78;;;12.64;83.50
68948;BME280;55996;49.546;7.400;2023-05-31T01:35:02;99155.06;;;12.66;83.29
68948;BME280;55996;49.546;7.400;2023-05-31T01:37:27;99158.97;;;12.54;84.74
68948;BME280;55996;49.546;7.400;2023-05-31T01:39:53;99149.34;;;12.54;83.99
68948;BME280;55996;49.546;7.400;2023-05-31T01:42:20;99152.06;;;12.51;84.80
68948;BME280;55996;49.546;7.400;2023-05-31T01:44:47;99157.41;;;12.48;84.87
68948;BME280;55996;49.546;7.400;2023-05-31T01:47:14;99156.00;;;12.38;86.05
68948;BME280;55996;49.546;7.400;2023-05-31T01:49:41;99161.19;;;12.39;85.09
68948;BME280;55996;49.546;7.400;2023-05-31T01:52:15;99160.44;;;12.36;83.91
68948;BME280;55996;49.546;7.400;2023-05-31T01:54:42;99158.91;;;12.29;83.85
68948;BME280;55996;49.546;7.400;2023-05-31T01:57:08;99151.41;;;12.18;84.41
68948;BME280;55996;49.546;7.400;2023-05-31T01:59:35;99139.44;;;12.09;84.94
68948;BME280;55996;49.546;7.400;2023-05-31T02:02:02;99143.72;;;12.11;85.15
68948;BME280;55996;49.546;7.400;2023-05-31T02:04:28;99143.97;;;12.04;85.73
68948;BME280;55996;49.546;7.400;2023-05-31T02:06:54;99154.31;;;12.08;86.71
68948;BME280;55996;49.546;7.400;2023-05-31T02:09:20;99151.03;;;12.02;85.76
68948;BME280;55996;49.546;7.400;2023-05-31T02:11:46;99153.81;;;11.95;85.59
68948;BME280;55996;49.546;7.400;2023-05-31T02:14:12;99154.75;;;11.93;87.38
68948;BME280;55996;49.546;7.400;2023-05-31T02:16:37;99165.41;;;11.88;87.50
68948;BME280;55996;49.546;7.400;2023-05-31T02:19:03;99161.06;;;11.87;87.43
68948;BME280;55996;49.546;7.400;2023-05-31T02:21:28;99162.09;;;11.82;87.94
68948;BME280;55996;49.546;7.400;2023-05-31T02:23:54;99165.84;;;11.73;88.90
68948;BME280;55996;49.546;7.400;2023-05-31T02:26:20;99162.69;;;11.61;91.23
68948;BME280;55996;49.546;7.400;2023-05-31T02:28:47;99163.53;;;11.63;89.97
68948;BME280;55996;49.546;7.400;2023-05-31T02:31:12;99163.06;;;11.49;91.15
68948;BME280;55996;49.546;7.400;2023-05-31T02:33:40;99171.47;;;11.60;90.24
68948;BME280;55996;49.546;7.400;2023-05-31T02:36:06;99168.13;;;11.55;90.44
68948;BME280;55996;49.546;7.400;2023-05-31T02:38:31;99158.78;;;11.46;90.97
68948;BME280;55996;49.546;7.400;2023-05-31T02:40:57;99158.41;;;11.29;93.14
68948;BME280;55996;49.546;7.400;2023-05-31T02:43:22;99160.06;;;11.32;92.67
68948;BME280;55996;49.546;7.400;2023-05-31T02:45:47;99169.59;;;11.34;93.21
68948;BME280;55996;49.546;7.400;2023-05-31T02:48:13;99164.38;;;11.34;93.46
68948;BME280;55996;49.546;7.400;2023-05-31T02:50:38;99168.81;;;11.30;93.42
68948;BME280;55996;49.546;7.400;2023-05-31T02:53:04;99159.53;;;11.19;94.58
68948;BME280;55996;49.546;7.400;2023-05-31T02:55:30;99173.69;;;11.13;96.17
68948;BME280;55996;49.546;7.400;2023-05-31T02:57:56;99155.38;;;11.13;94.03
68948;BME280;55996;49.546;7.400;2023-05-31T03:00:21;99168.34;;;11.16;94.96
68948;BME280;55996;49.546;7.400;2023-05-31T03:02:47;99165.81;;;11.13;95.39
68948;BME280;55996;49.546;7.400;2023-05-31T03:05:12;99161.53;;;11.10;96.99
68948;BME280;55996;49.546;7.400;2023-05-31T03:07:38;99171.41;;;11.01;98.22
68948;BME280;55996;49.546;7.400;2023-05-31T03:10:04;99172.16;;;11.04;99.01
68948;BME280;55996;49.546;7.400;2023-05-31T03:12:31;99166.16;;;11.01;98.12
68948;BME280;55996;49.546;7.400;2023-05-31T03:14:56;99172.47;;;10.93;100.00
68948;BME280;55996;49.546;7.400;2023-05-31T03:17:22;99168.84;;;10.97;99.98
68948;BME280;55996;49.546;7.400;2023-05-31T03:19:47;99168.16;;;10.91;100.00
68948;BME280;55996;49.546;7.400;2023-05-31T03:22:13;99181.13;;;10.95;100.00
68948;BME280;55996;49.546;7.400;2023-05-31T03:24:38;99174.38;;;10.87;100.00
68948;BME280;55996;49.546;7.400;2023-05-31T03:27:04;99172.56;;;10.89;100.00
68948;BME280;55996;49.546;7.400;2023-05-31T03:29:31;99182.91;;;10.93;100.00
68948;BME280;55996;49.546;7.400;2023-05-31T03:31:56;99181.13;;;10.95;100.00
68948;BME280;55996;49.546;7.400;2023-05-31T03:34:22;99172.41;;;10.95;100.00
68948;BME280;55996;49.546;7.400;2023-05-31T03:36:48;99176.69;;;10.97;100.00
68948;BME280;55996;49.546;7.400;2023-05-31T03:39:13;99169.84;;;10.93;100.00
68948;BME280;55996;49.546;7.400;2023-05-31T03:41:39;99182.03;;;10.94;100.00
68948;BME280;55996;49.546;7.400;2023-05-31T03:44:04;99178.47;;;10.97;100.00
68948;BME280;55996;49.546;7.400;2023-05-31T03:46:30;99176.59;;;11.02;100.00
68948;BME280;55996;49.546;7.400;2023-05-31T03:48:55;99166.38;;;10.93;100.00
68948;BME280;55996;49.546;7.400;2023-05-31T03:51:20;99177.47;;;11.03;100.00
68948;BME280;55996;49.546;7.400;2023-05-31T03:53:46;99166.06;;;11.04;100.00
68948;BME280;55996;49.546;7.400;2023-05-31T03:56:11;99160.84;;;11.04;100.00
68948;BME280;55996;49.546;7.400;2023-05-31T03:58:37;99169.34;;;11.12;100.00
68948;BME280;55996;49.546;7.400;2023-05-31T04:01:02;99163.31;;;11.08;100.00
68948;BME280;55996;49.546;7.400;2023-05-31T04:03:28;99161.72;;;11.04;100.00
68948;BME280;55996;49.546;7.400;2023-05-31T04:05:54;99167.78;;;11.05;100.00
68948;BME280;55996;49.546;7.400;2023-05-31T04:08:19;99175.53;;;11.09;100.00
68948;BME280;55996;49.546;7.400;2023-05-31T04:10:45;99161.75;;;11.03;100.00
68948;BME280;55996;49.546;7.400;2023-05-31T04:13:10;99166.72;;;11.12;100.00
68948;BME280;55996;49.546;7.400;2023-05-31T04:15:36;99164.09;;;11.12;100.00
68948;BME280;55996;49.546;7.400;2023-05-31T04:18:02;99176.19;;;11.18;100.00
68948;BME280;55996;49.546;7.400;2023-05-31T04:20:28;99174.50;;;11.15;100.00
68948;BME280;55996;49.546;7.400;2023-05-31T04:22:53;99176.94;;;11.21;100.00
68948;BME280;55996;49.546;7.400;2023-05-31T04:25:22;99181.97;;;11.29;100.00
68948;BME280;55996;49.546;7.400;2023-05-31T04:27:47;99175.06;;;11.26;100.00
68948;BME280;55996;49.546;7.400;2023-05-31T04:30:14;99174.72;;;11.37;100.00
68948;BME280;55996;49.546;7.400;2023-05-31T04:32:40;99183.25;;;11.45;100.00
68948;BME280;55996;49.546;7.400;2023-05-31T04:35:06;99176.97;;;11.51;100.00
68948;BME280;55996;49.546;7.400;2023-05-31T04:37:33;99171.75;;;11.50;100.00
68948;BME280;55996;49.546;7.400;2023-05-31T04:39:59;99178.31;;;11.65;100.00
68948;BME280;55996;49.546;7.400;2023-05-31T04:42:28;99179.78;;;11.75;100.00
68948;BME280;55996;49.546;7.400;2023-05-31T04:44:58;99170.09;;;11.77;100.00
68948;BME280;55996;49.546;7.400;2023-05-31T04:47:24;99173.09;;;11.93;100.00
68948;BME280;55996;49.546;7.400;2023-05-31T04:49:53;99182.34;;;12.06;100.00
68948;BME280;55996;49.546;7.400;2023-05-31T04:52:23;99168.91;;;12.17;100.00
68948;BME280;55996;49.546;7.400;2023-05-31T04:54:52;99173.63;;;12.33;100.00
68948;BME280;55996;49.546;7.400;2023-05-31T04:57:17;99164.41;;;12.48;99.00
68948;BME280;55996;49.546;7.400;2023-05-31T04:59:43;99169.09;;;12.65;100.00
68948;BME280;55996;49.546;7.400;2023-05-31T05:02:08;99168.81;;;12.74;98.36
68948;BME280;55996;49.546;7.400;2023-05-31T05:04:33;99154.50;;;12.83;94.56
68948;BME280;55996;49.546;7.400;2023-05-31T05:06:59;99163.25;;;13.07;92.61
68948;BME280;55996;49.546;7.400;2023-05-31T05:09:24;99170.47;;;13.26;91.53
68948;BME280;55996;49.546;7.400;2023-05-31T05:11:50;99174.19;;;13.45;92.90
68948;BME280;55996;49.546;7.400;2023-05-31T05:14:15;99171.09;;;13.58;89.88
68948;BME280;55996;49.546;7.400;2023-05-31T05:16:41;99165.06;;;13.78;91.35
68948;BME280;55996;49.546;7.400;2023-05-31T05:19:06;99174.13;;;13.93;86.78
68948;BME280;55996;49.546;7.400;2023-05-31T05:21:31;99168.41;;;14.05;85.68
68948;BME280;55996;49.546;7.400;2023-05-31T05:23:57;99170.75;;;14.13;83.75
68948;BME280;55996;49.546;7.400;2023-05-31T05:26:22;99172.19;;;14.20;84.54
68948;BME280;55996;49.546;7.400;2023-05-31T05:28:48;99165.34;;;14.16;84.79
68948;BME280;55996;49.546;7.400;2023-05-31T05:31:13;99176.59;;;14.19;85.18
68948;BME280;55996;49.546;7.400;2023-05-31T05:33:39;99168.97;;;14.13;82.30
68948;BME280;55996;49.546;7.400;2023-05-31T05:36:04;99179.47;;;14.13;82.66
68948;BME280;55996;49.546;7.400;2023-05-31T05:38:30;99176.59;;;14.19;81.31
68948;BME280;55996;49.546;7.400;2023-05-31T05:40:55;99177.84;;;14.33;80.02
68948;BME280;55996;49.546;7.400;2023-05-31T05:43:21;99175.63;;;14.44;79.51
68948;BME280;55996;49.546;7.400;2023-05-31T05:45:47;99180.13;;;14.63;79.33
68948;BME280;55996;49.546;7.400;2023-05-31T05:48:13;99186.13;;;14.66;77.83
68948;BME280;55996;49.546;7.400;2023-05-31T05:50:39;99184.91;;;14.75;78.59
68948;BME280;55996;49.546;7.400;2023-05-31T05:53:06;99180.81;;;14.68;78.02
68948;BME280;55996;49.546;7.400;2023-05-31T05:55:33;99183.38;;;14.90;76.91
68948;BME280;55996;49.546;7.400;2023-05-31T05:57:59;99186.13;;;15.08;77.06
68948;BME280;55996;49.546;7.400;2023-05-31T06:00:24;99188.31;;;15.19;75.50
68948;BME280;55996;49.546;7.400;2023-05-31T06:02:50;99184.47;;;15.26;74.77
68948;BME280;55996;49.546;7.400;2023-05-31T06:05:18;99179.38;;;15.42;75.67
68948;BME280;55996;49.546;7.400;2023-05-31T06:07:54;99179.94;;;15.48;73.20
68948;BME280;55996;49.546;7.400;2023-05-31T06:10:20;99184.66;;;15.80;70.87
68948;BME280;55996;49.546;7.400;2023-05-31T06:12:45;99173.94;;;15.85;70.55
68948;BME280;55996;49.546;7.400;2023-05-31T06:15:11;99188.34;;;15.96;70.90
68948;BME280;55996;49.546;7.400;2023-05-31T06:17:36;99183.53;;;16.05;68.80
68948;BME280;55996;49.546;7.400;2023-05-31T06:20:03;99172.81;;;16.27;68.10
68948;BME280;55996;49.546;7.400;2023-05-31T06:22:30;99177.81;;;16.51;67.56
68948;BME280;55996;49.546;7.400;2023-05-31T06:24:57;99177.34;;;16.25;67.42
68948;BME280;55996;49.546;7.400;2023-05-31T06:27:23;99184.78;;;16.34;66.69
68948;BME280;55996;49.546;7.400;2023-05-31T06:29:49;99184.91;;;16.68;65.00
68948;BME280;55996;49.546;7.400;2023-05-31T06:32:20;99178.06;;;16.81;65.00
68948;BME280;55996;49.546;7.400;2023-05-31T06:34:46;99185.38;;;17.11;63.67
68948;BME280;55996;49.546;7.400;2023-05-31T06:37:11;99167.06;;;17.24;63.96
68948;BME280;55996;49.546;7.400;2023-05-31T06:39:37;99177.63;;;17.41;61.90
68948;BME280;55996;49.546;7.400;2023-05-31T06:42:03;99170.25;;;17.64;61.00
68948;BME280;55996;49.546;7.400;2023-05-31T06:44:28;99176.56;;;17.94;60.12
68948;BME280;55996;49.546;7.400;2023-05-31T06:46:56;99177.41;;;17.78;60.49
68948;BME280;55996;49.546;7.400;2023-05-31T06:49:22;99171.63;;;17.71;60.08
68948;BME280;55996;49.546;7.400;2023-05-31T06:51:47;99180.16;;;17.77;60.50
68948;BME280;55996;49.546;7.400;2023-05-31T06:54:13;99178.53;;;18.22;58.02
68948;BME280;55996;49.546;7.400;2023-05-31T06:56:38;99181.47;;;18.01;58.06
68948;BME280;55996;49.546;7.400;2023-05-31T06:59:04;99170.53;;;18.23;56.61
68948;BME280;55996;49.546;7.400;2023-05-31T07:01:29;99164.19;;;18.26;56.52
68948;BME280;55996;49.546;7.400;2023-05-31T07:03:55;99181.19;;;18.22;55.38
68948;BME280;55996;49.546;7.400;2023-05-31T07:06:20;99175.38;;;18.62;55.87
68948;BME280;55996;49.546;7.400;2023-05-31T07:08:46;99171.78;;;18.63;54.77
68948;BME280;55996;49.546;7.400;2023-05-31T07:11:12;99165.81;;;18.59;53.96
68948;BME280;55996;49.546;7.400;2023-05-31T07:13:38;99159.16;;;18.82;55.68
68948;BME280;55996;49.546;7.400;2023-05-31T07:16:03;99163.13;;;19.06;52.34
68948;BME280;55996;49.546;7.400;2023-05-31T07:18:29;99150.47;;;19.25;53.36
68948;BME280;55996;49.546;7.400;2023-05-31T07:20:54;99159.53;;;19.07;51.76
68948;BME280;55996;49.546;7.400;2023-05-31T07:23:22;99161.91;;;19.26;52.23
68948;BME280;55996;49.546;7.400;2023-05-31T07:25:49;99151.78;;;19.47;52.31
68948;BME280;55996;49.546;7.400;2023-05-31T07:28:14;99149.50;;;19.41;51.87
68948;BME280;55996;49.546;7.400;2023-05-31T07:30:40;99146.06;;;19.67;51.92
68948;BME280;55996;49.546;7.400;2023-05-31T07:33:05;99150.66;;;20.35;50.55
68948;BME280;55996;49.546;7.400;2023-05-31T07:35:31;99151.56;;;20.21;50.03
68948;BME280;55996;49.546;7.400;2023-05-31T07:37:56;99152.41;;;20.21;51.67
68948;BME280;55996;49.546;7.400;2023-05-31T07:40:22;99142.75;;;20.60;50.24
68948;BME280;55996;49.546;7.400;2023-05-31T07:42:47;99134.72;;;21.01;48.51
68948;BME280;55996;49.546;7.400;2023-05-31T07:45:12;99140.06;;;20.88;48.69
68948;BME280;55996;49.546;7.400;2023-05-31T07:47:38;99134.78;;;20.60;48.82
68948;BME280;55996;49.546;7.400;2023-05-31T07:50:04;99132.31;;;20.57;48.76
68948;BME280;55996;49.546;7.400;2023-05-31T07:52:29;99130.03;;;21.17;49.02
68948;BME280;55996;49.546;7.400;2023-05-31T07:54:55;99131.75;;;21.18;46.54
68948;BME280;55996;49.546;7.400;2023-05-31T07:57:20;99128.03;;;21.34;46.49
68948;BME280;55996;49.546;7.400;2023-05-31T07:59:48;99126.41;;;21.18;48.11
68948;BME280;55996;49.546;7.400;2023-05-31T08:02:14;99121.75;;;22.09;47.09
68948;BME280;55996;49.546;7.400;2023-05-31T08:04:40;99135.69;;;21.88;46.20
68948;BME280;55996;49.546;7.400;2023-05-31T08:07:06;99116.19;;;21.88;47.15
68948;BME280;55996;49.546;7.400;2023-05-31T08:09:31;99118.22;;;21.84;46.11
68948;BME280;55996;49.546;7.400;2023-05-31T08:11:57;99107.25;;;21.39;46.44
68948;BME280;55996;49.546;7.400;2023-05-31T08:14:22;99109.63;;;21.18;45.74
68948;BME280;55996;49.546;7.400;2023-05-31T08:16:48;99098.41;;;21.88;48.49
68948;BME280;55996;49.546;7.400;2023-05-31T08:19:14;99096.44;;;22.63;45.73
68948;BME280;55996;49.546;7.400;2023-05-31T08:21:40;99099.72;;;22.67;44.27
68948;BME280;55996;49.546;7.400;2023-05-31T08:24:05;99089.13;;;22.18;43.81
68948;BME280;55996;49.546;7.400;2023-05-31T08:26:32;99087.31;;;22.54;45.37
68948;BME280;55996;49.546;7.400;2023-05-31T08:28:58;99102.44;;;22.43;43.38
68948;BME280;55996;49.546;7.400;2023-05-31T08:31:23;99096.69;;;22.71;43.02
68948;BME280;55996;49.546;7.400;2023-05-31T08:33:53;99085.75;;;22.52;43.66
68948;BME280;55996;49.546;7.400;2023-05-31T08:36:19;99075.03;;;22.87;43.59
68948;BME280;55996;49.546;7.400;2023-05-31T08:38:45;99079.78;;;23.29;44.79
68948;BME280;55996;49.546;7.400;2023-05-31T08:41:10;99063.13;;;23.60;42.26
68948;BME280;55996;49.546;7.400;2023-05-31T08:43:36;99064.09;;;23.59;41.37
68948;BME280;55996;49.546;7.400;2023-05-31T08:46:04;99074.84;;;23.25;42.20
68948;BME280;55996;49.546;7.400;2023-05-31T08:48:45;99060.63;;;23.24;40.17
68948;BME280;55996;49.546;7.400;2023-05-31T08:51:13;99071.63;;;23.53;40.71
68948;BME280;55996;49.546;7.400;2023-05-31T08:53:41;99050.13;;;23.66;40.97
68948;BME280;55996;49.546;7.400;2023-05-31T08:56:07;99065.75;;;24.15;40.50
68948;BME280;55996;49.546;7.400;2023-05-31T08:58:34;99065.75;;;24.69;40.17
68948;BME280;55996;49.546;7.400;2023-05-31T09:01:02;99066.09;;;24.64;39.46
68948;BME280;55996;49.546;7.400;2023-05-31T09:03:27;99074.81;;;23.47;39.34
68948;BME280;55996;49.546;7.400;2023-05-31T09:05:54;99075.53;;;24.05;38.40
68948;BME280;55996;49.546;7.400;2023-05-31T09:08:23;99070.03;;;24.06;38.24
68948;BME280;55996;49.546;7.400;2023-05-31T09:10:49;99077.50;;;23.80;40.59
68948;BME280;55996;49.546;7.400;2023-05-31T09:13:15;99072.34;;;24.11;39.39
68948;BME280;55996;49.546;7.400;2023-05-31T09:15:41;99065.09;;;23.46;39.61
68948;BME280;55996;49.546;7.400;2023-05-31T09:18:19;99068.75;;;23.34;39.82
68948;BME280;55996;49.546;7.400;2023-05-31T09:20:49;99068.59;;;23.58;39.17
68948;BME280;55996;49.546;7.400;2023-05-31T09:23:17;99055.28;;;24.23;39.69
68948;BME280;55996;49.546;7.400;2023-05-31T09:25:52;99060.19;;;24.60;38.32
68948;BME280;55996;49.546;7.400;2023-05-31T09:28:19;99062.53;;;24.11;38.38
68948;BME280;55996;49.546;7.400;2023-05-31T09:30:45;99058.97;;;24.11;38.28
68948;BME280;55996;49.546;7.400;2023-05-31T09:33:13;99056.59;;;24.29;37.98
68948;BME280;55996;49.546;7.400;2023-05-31T09:35:55;99052.91;;;23.65;37.64
68948;BME280;55996;49.546;7.400;2023-05-31T09:38:34;99048.91;;;23.71;38.09
68948;BME280;55996;49.546;7.400;2023-05-31T09:41:20;99034.41;;;24.59;39.01
68948;BME280;55996;49.546;7.400;2023-05-31T09:43:48;99047.13;;;24.25;36.90
68948;BME280;55996;49.546;7.400;2023-05-31T09:46:18;99056.88;;;23.93;37.04
68948;BME280;55996;49.546;7.400;2023-05-31T09:48:45;99034.22;;;24.09;36.98
68948;BME280;55996;49.546;7.400;2023-05-31T09:51:12;99046.22;;;23.82;37.90
68948;BME280;55996;49.546;7.400;2023-05-31T09:53:43;99044.72;;;24.22;37.38
68948;BME280;55996;49.546;7.400;2023-05-31T09:56:10;99042.06;;;24.64;38.53
68948;BME280;55996;49.546;7.400;2023-05-31T09:58:36;99037.47;;;24.66;36.50
68948;BME280;55996;49.546;7.400;2023-05-31T10:01:03;99039.19;;;24.56;37.38
68948;BME280;55996;49.546;7.400;2023-05-31T10:03:28;99052.75;;;25.16;36.77
68948;BME280;55996;49.546;7.400;2023-05-31T10:05:54;99056.25;;;24.22;36.38
68948;BME280;55996;49.546;7.400;2023-05-31T10:08:22;99047.28;;;24.44;36.98
68948;BME280;55996;49.546;7.400;2023-05-31T10:10:48;99046.88;;;24.91;35.04
68948;BME280;55996;49.546;7.400;2023-05-31T10:13:14;99041.56;;;25.01;36.62
68948;BME280;55996;49.546;7.400;2023-05-31T10:15:43;99040.94;;;25.79;34.03
68948;BME280;55996;49.546;7.400;2023-05-31T10:18:12;99041.16;;;25.37;35.21
68948;BME280;55996;49.546;7.400;2023-05-31T10:20:42;99041.75;;;25.09;35.10
68948;BME280;55996;49.546;7.400;2023-05-31T10:23:20;99039.47;;;24.74;35.49
68948;BME280;55996;49.546;7.400;2023-05-31T10:28:17;99036.31;;;25.30;35.45
68948;BME280;55996;49.546;7.400;2023-05-31T10:30:49;99026.16;;;26.14;36.03
68948;BME280;55996;49.546;7.400;2023-05-31T10:33:17;99016.94;;;26.56;34.42
68948;BME280;55996;49.546;7.400;2023-05-31T10:35:45;99025.16;;;26.25;32.20
68948;BME280;55996;49.546;7.400;2023-05-31T10:38:11;99031.88;;;24.79;33.59
68948;BME280;55996;49.546;7.400;2023-05-31T10:43:34;99027.97;;;25.94;34.79
68948;BME280;55996;49.546;7.400;2023-05-31T10:46:06;99022.50;;;26.15;33.14
68948;BME280;55996;49.546;7.400;2023-05-31T10:48:54;99029.41;;;25.28;33.54
68948;BME280;55996;49.546;7.400;2023-05-31T10:54:05;99023.06;;;25.29;32.99
68948;BME280;55996;49.546;7.400;2023-05-31T10:56:31;99025.94;;;25.47;33.58
68948;BME280;55996;49.546;7.400;2023-05-31T10:58:57;99022.84;;;25.01;34.11
68948;BME280;55996;49.546;7.400;2023-05-31T11:01:28;99031.03;;;25.19;33.79
68948;BME280;55996;49.546;7.400;2023-05-31T11:03:54;99029.75;;;25.04;32.97
68948;BME280;55996;49.546;7.400;2023-05-31T11:06:27;99029.03;;;25.42;33.50
68948;BME280;55996;49.546;7.400;2023-05-31T11:09:08;99019.72;;;24.96;33.82
68948;BME280;55996;49.546;7.400;2023-05-31T11:14:09;99013.97;;;25.10;33.33
68948;BME280;55996;49.546;7.400;2023-05-31T11:19:29;99026.81;;;26.46;33.23
68948;BME280;55996;49.546;7.400;2023-05-31T11:21:56;99023.88;;;26.39;33.15
68948;BME280;55996;49.546;7.400;2023-05-31T11:27:04;99018.19;;;26.52;30.74
68948;BME280;55996;49.546;7.400;2023-05-31T11:32:21;99012.16;;;25.91;32.44
68948;BME280;55996;49.546;7.400;2023-05-31T11:34:59;99008.94;;;25.97;32.66
68948;BME280;55996;49.546;7.400;2023-05-31T11:37:34;99013.47;;;26.26;32.35
68948;BME280;55996;49.546;7.400;2023-05-31T11:40:12;98997.19;;;26.95;31.09
68948;BME280;55996;49.546;7.400;2023-05-31T11:42:39;98997.72;;;27.72;31.49
68948;BME280;55996;49.546;7.400;2023-05-31T11:45:10;98997.59;;;27.28;30.64
68948;BME280;55996;49.546;7.400;2023-05-31T11:48:09;98992.56;;;26.87;32.86
68948;BME280;55996;49.546;7.400;2023-05-31T11:50:36;98997.69;;;27.08;32.04
68948;BME280;55996;49.546;7.400;2023-05-31T11:53:03;98972.25;;;27.40;32.53
68948;BME280;55996;49.546;7.400;2023-05-31T11:55:33;98996.94;;;26.88;31.59
68948;BME280;55996;49.546;7.400;2023-05-31T11:58:00;98987.06;;;26.31;32.76
68948;BME280;55996;49.546;7.400;2023-05-31T12:00:26;98985.94;;;27.37;32.04
68948;BME280;55996;49.546;7.400;2023-05-31T12:02:55;98989.81;;;26.49;31.76
68948;BME280;55996;49.546;7.400;2023-05-31T12:05:27;98980.00;;;26.87;32.76
68948;BME280;55996;49.546;7.400;2023-05-31T12:07:55;98975.75;;;26.85;31.38
68948;BME280;55996;49.546;7.400;2023-05-31T12:10:24;98956.91;;;28.05;31.53
68948;BME280;55996;49.546;7.400;2023-05-31T12:12:50;98955.91;;;28.93;29.72
68948;BME280;55996;49.546;7.400;2023-05-31T12:15:16;98952.53;;;28.30;27.89
68948;BME280;55996;49.546;7.400;2023-05-31T12:17:42;98960.13;;;28.34;28.27
68948;BME280;55996;49.546;7.400;2023-05-31T12:20:08;98968.28;;;28.25;28.10
68948;BME280;55996;49.546;7.400;2023-05-31T12:22:34;98968.63;;;27.85;28.63
68948;BME280;55996;49.546;7.400;2023-05-31T12:25:00;98960.28;;;27.52;28.54
68948;BME280;55996;49.546;7.400;2023-05-31T12:27:27;98961.84;;;27.99;28.53
68948;BME280;55996;49.546;7.400;2023-05-31T12:29:58;98949.56;;;28.67;27.20
68948;BME280;55996;49.546;7.400;2023-05-31T12:32:24;98955.13;;;27.59;28.49
68948;BME280;55996;49.546;7.400;2023-05-31T12:35:07;98955.59;;;27.09;29.51
68948;BME280;55996;49.546;7.400;2023-05-31T12:37:37;98948.91;;;27.41;27.04
68948;BME280;55996;49.546;7.400;2023-05-31T12:40:15;98948.28;;;28.54;26.22
68948;BME280;55996;49.546;7.400;2023-05-31T12:42:42;98935.09;;;27.08;26.97
68948;BME280;55996;49.546;7.400;2023-05-31T12:45:08;98938.72;;;27.44;27.14
68948;BME280;55996;49.546;7.400;2023-05-31T12:47:35;98942.94;;;27.19;27.71
68948;BME280;55996;49.546;7.400;2023-05-31T12:50:05;98945.34;;;28.39;26.12
68948;BME280;55996;49.546;7.400;2023-05-31T12:52:37;98944.81;;;27.91;26.78
68948;BME280;55996;49.546;7.400;2023-05-31T12:55:06;98945.06;;;27.97;26.61
68948;BME280;55996;49.546;7.400;2023-05-31T12:57:33;98937.00;;;27.97;27.72
68948;BME280;55996;49.546;7.400;2023-05-31T12:59:59;98928.34;;;28.99;27.05
68948;BME280;55996;49.546;7.400;2023-05-31T13:02:25;98917.50;;;29.42;26.39
68948;BME280;55996;49.546;7.400;2023-05-31T13:04:50;98932.97;;;28.01;27.19
68948;BME280;55996;49.546;7.400;2023-05-31T13:07:16;98922.16;;;27.49;27.26
68948;BME280;55996;49.546;7.400;2023-05-31T13:09:41;98916.03;;;28.27;26.80
68948;BME280;55996;49.546;7.400;2023-05-31T13:12:07;98915.91;;;29.14;26.74
68948;BME280;55996;49.546;7.400;2023-05-31T13:14:33;98916.09;;;29.13;27.21
68948;BME280;55996;49.546;7.400;2023-05-31T13:16:58;98922.16;;;29.15;27.05
68948;BME280;55996;49.546;7.400;2023-05-31T13:19:24;98909.78;;;29.55;26.42
68948;BME280;55996;49.546;7.400;2023-05-31T13:21:49;98912.31;;;29.49;26.55
68948;BME280;55996;49.546;7.400;2023-05-31T13:24:15;98906.59;;;28.58;26.11